Time;durP1;ratioP1;P1;durP2;ratioP2;P2;SDS_P1;SDS_P2;PMS_P1;PMS_P2;Temp;Humidity;BMP_temperature;BMP_pressure;BME280_temperature;BME280_humidity;BME280_pressure;Samples;Min_cycle;Max_cycle;Signal;HPM_P1;HPM_P2
2023/09/25 00:00:45;;;;;;;1064.53;885.08;;;12.20;99.90;;;;;;4889277;29;20059;-82
2023/09/25 00:03:11;;;;;;;1049.70;875.88;;;12.20;99.90;;;;;;4891626;29;20351;-82
2023/09/25 00:05:37;;;;;;;1095.20;889.88;;;12.30;99.90;;;;;;4889893;29;20505;-82
2023/09/25 00:08:03;;;;;;;993.92;850.22;;;12.40;99.90;;;;;;4890601;29;20040;-82
2023/09/25 00:10:31;;;;;;;989.47;850.03;;;12.40;99.90;;;;;;4890540;29;20185;-83
2023/09/25 00:12:58;;;;;;;1000.53;854.95;;;12.40;99.90;;;;;;4871514;29;20132;-82
2023/09/25 00:15:24;;;;;;;1047.30;871.33;;;12.40;99.90;;;;;;4888550;29;20063;-82
2023/09/25 00:17:50;;;;;;;1037.90;872.58;;;12.50;99.90;;;;;;4891913;29;20512;-82
2023/09/25 00:20:20;;;;;;;964.03;839.25;;;12.50;99.90;;;;;;4890543;29;20048;-82
2023/09/25 00:22:46;;;;;;;1143.15;902.20;;;12.50;99.90;;;;;;4890173;29;20120;-82
2023/09/25 00:25:12;;;;;;;994.83;849.67;;;12.50;99.90;;;;;;4889935;29;20519;-83
2023/09/25 00:27:38;;;;;;;962.67;840.92;;;12.60;99.90;;;;;;4889454;29;20118;-82
2023/09/25 00:30:08;;;;;;;951.25;846.58;;;12.50;99.90;;;;;;4890044;29;20048;-83
2023/09/25 00:32:34;;;;;;;943.42;837.10;;;12.50;99.90;;;;;;4875103;29;20116;-82
2023/09/25 00:35:00;;;;;;;915.85;815.55;;;12.50;99.90;;;;;;4888923;29;20072;-83
2023/09/25 00:37:27;;;;;;;962.13;844.40;;;12.50;99.90;;;;;;4889714;29;20107;-82
2023/09/25 00:39:53;;;;;;;1003.05;854.95;;;12.50;99.90;;;;;;4889184;29;20079;-82
2023/09/25 00:42:18;;;;;;;900.67;805.28;;;12.50;99.90;;;;;;4889988;29;20099;-82
2023/09/25 00:44:44;;;;;;;978.53;851.67;;;12.50;99.90;;;;;;4870664;29;20048;-82
2023/09/25 00:47:10;;;;;;;915.05;815.30;;;12.50;99.90;;;;;;4874200;29;20056;-82
2023/09/25 00:49:36;;;;;;;917.72;817.88;;;12.50;99.90;;;;;;4889923;29;20186;-83
2023/09/25 00:52:03;;;;;;;935.10;832.22;;;12.50;99.90;;;;;;4874711;29;20328;-82
2023/09/25 00:54:31;;;;;;;1019.22;867.55;;;12.50;99.90;;;;;;4887945;29;20041;-82
2023/09/25 00:56:58;;;;;;;1048.55;865.38;;;12.50;99.90;;;;;;4872372;29;20479;-83
2023/09/25 00:59:26;;;;;;;1033.47;874.55;;;12.50;99.90;;;;;;4894108;29;20052;-82
2023/09/25 01:01:53;;;;;;;947.40;835.65;;;12.40;99.90;;;;;;4876890;29;20092;-82
2023/09/25 01:04:19;;;;;;;940.40;836.53;;;12.40;99.90;;;;;;4878486;29;20047;-82
2023/09/25 01:06:45;;;;;;;914.20;815.00;;;12.40;99.90;;;;;;4877343;29;20048;-83
2023/09/25 01:09:12;;;;;;;976.33;847.28;;;12.30;99.90;;;;;;4877809;29;20041;-83
2023/09/25 01:11:39;;;;;;;909.90;814.72;;;12.30;99.90;;;;;;4892613;29;20061;-83
2023/09/25 01:14:05;;;;;;;895.35;799.38;;;12.30;99.90;;;;;;4893999;29;20135;-82
2023/09/25 01:16:31;;;;;;;954.88;840.97;;;12.20;99.90;;;;;;4876013;29;20192;-83
2023/09/25 01:18:57;;;;;;;1051.65;872.58;;;12.20;99.90;;;;;;4893565;29;20084;-82
2023/09/25 01:21:25;;;;;;;977.50;849.67;;;12.20;99.90;;;;;;4877810;29;20568;-83
2023/09/25 01:23:50;;;;;;;1008.10;857.80;;;12.20;99.90;;;;;;4876868;29;20055;-82
2023/09/25 01:26:16;;;;;;;997.53;862.08;;;12.10;99.90;;;;;;4893119;29;20053;-82
2023/09/25 01:28:42;;;;;;;972.38;851.00;;;12.20;99.90;;;;;;4892751;29;20060;-83
2023/09/25 01:31:07;;;;;;;1042.25;863.95;;;12.20;99.90;;;;;;4892154;29;20064;-83
2023/09/25 01:33:34;;;;;;;1044.35;863.65;;;12.10;99.90;;;;;;4877500;29;20057;-83
2023/09/25 01:36:00;;;;;;;1012.42;858.65;;;12.10;99.90;;;;;;4893787;29;20059;-82
2023/09/25 01:38:25;;;;;;;986.15;856.10;;;12.10;99.90;;;;;;4892853;29;20465;-82
2023/09/25 01:40:51;;;;;;;1030.90;870.03;;;12.10;99.90;;;;;;4891845;29;20425;-83
2023/09/25 01:43:17;;;;;;;979.35;854.85;;;12.10;99.90;;;;;;4892418;29;20055;-83
2023/09/25 01:45:43;;;;;;;1091.80;888.15;;;12.10;99.90;;;;;;4872620;29;20067;-82
2023/09/25 01:48:08;;;;;;;934.53;832.13;;;12.10;99.90;;;;;;4892899;29;20052;-83
2023/09/25 01:50:34;;;;;;;985.22;852.00;;;12.10;99.90;;;;;;4892130;29;20096;-83
2023/09/25 01:53:01;;;;;;;1064.68;875.20;;;12.10;99.90;;;;;;4892188;29;20040;-83
2023/09/25 01:55:29;;;;;;;1045.30;873.28;;;12.10;99.90;;;;;;4892576;29;20049;-82
2023/09/25 01:57:54;;;;;;;937.13;834.05;;;12.00;99.90;;;;;;4875785;29;20092;-82
2023/09/25 02:00:20;;;;;;;1073.65;885.38;;;12.00;99.90;;;;;;4891839;29;20181;-83
2023/09/25 02:02:46;;;;;;;936.70;834.30;;;12.00;99.90;;;;;;4892058;29;20135;-83
2023/09/25 02:05:12;;;;;;;925.88;827.58;;;12.00;99.90;;;;;;4875899;29;20255;-82
2023/09/25 02:07:38;;;;;;;1029.20;863.17;;;12.00;99.90;;;;;;4892362;29;20544;-82
2023/09/25 02:10:05;;;;;;;987.28;862.53;;;12.00;99.90;;;;;;4890974;29;20089;-82
2023/09/25 02:12:31;;;;;;;943.47;839.05;;;12.00;99.90;;;;;;4876334;29;20048;-82
2023/09/25 02:15:02;;;;;;;1088.80;885.92;;;12.00;99.90;;;;;;4891110;29;20184;-82
2023/09/25 02:17:29;;;;;;;958.78;847.28;;;12.00;99.90;;;;;;4877148;29;20570;-83
2023/09/25 02:19:56;;;;;;;1036.38;863.60;;;12.00;99.90;;;;;;4890722;29;20054;-83
2023/09/25 02:22:22;;;;;;;997.88;860.28;;;12.00;99.90;;;;;;4891997;29;20564;-82
2023/09/25 02:24:48;;;;;;;962.53;853.50;;;12.00;99.90;;;;;;4891474;29;20175;-82
2023/09/25 02:27:14;;;;;;;945.55;841.50;;;12.00;99.90;;;;;;4891025;29;20052;-82
2023/09/25 02:29:39;;;;;;;1032.38;869.10;;;12.00;99.90;;;;;;4891382;29;20052;-83
2023/09/25 02:32:05;;;;;;;1078.97;886.38;;;11.90;99.90;;;;;;4892502;29;20506;-82
2023/09/25 02:34:31;;;;;;;969.60;851.65;;;11.90;99.90;;;;;;4890683;29;20448;-83
2023/09/25 02:36:56;;;;;;;1065.53;869.00;;;11.90;99.90;;;;;;4892127;29;20219;-82
2023/09/25 02:39:22;;;;;;;1117.22;905.83;;;11.90;99.90;;;;;;4890458;29;20045;-82
2023/09/25 02:41:48;;;;;;;1079.90;887.72;;;11.90;99.90;;;;;;4872687;29;20060;-82
2023/09/25 02:44:13;;;;;;;1020.92;864.47;;;11.90;99.90;;;;;;4885365;29;20036;-82
2023/09/25 02:46:39;;;;;;;1014.95;859.85;;;11.90;99.90;;;;;;4889837;29;20052;-81
2023/09/25 02:49:05;;;;;;;1131.97;903.33;;;11.90;99.90;;;;;;4892314;29;20585;-82
2023/09/25 02:51:30;;;;;;;939.55;837.45;;;11.90;99.90;;;;;;4891843;29;20489;-82
2023/09/25 02:53:57;;;;;;;996.92;862.30;;;11.80;99.90;;;;;;4890863;29;20489;-82
2023/09/25 02:56:23;;;;;;;1026.82;868.80;;;11.90;99.90;;;;;;4891843;29;20048;-82
2023/09/25 02:58:48;;;;;;;995.85;860.60;;;11.80;99.90;;;;;;4890749;29;20449;-82
2023/09/25 03:01:14;;;;;;;1024.07;870.50;;;11.80;99.90;;;;;;4890183;29;20052;-83
2023/09/25 03:03:40;;;;;;;1105.22;906.83;;;11.80;99.90;;;;;;4875567;29;20047;-82
2023/09/25 03:06:06;;;;;;;1144.50;899.70;;;11.80;99.90;;;;;;4892087;29;20116;-82
2023/09/25 03:08:32;;;;;;;1002.88;860.45;;;11.80;99.90;;;;;;4890678;29;20534;-82
2023/09/25 03:10:57;;;;;;;1059.32;884.90;;;11.70;99.90;;;;;;4872183;29;20049;-82
2023/09/25 03:13:23;;;;;;;1046.38;873.97;;;11.70;99.90;;;;;;4875945;29;20063;-82
2023/09/25 03:15:49;;;;;;;1147.43;906.63;;;11.70;99.90;;;;;;4889240;29;20045;-83
2023/09/25 03:18:16;;;;;;;1140.18;903.95;;;11.70;99.90;;;;;;4875702;29;20147;-82
2023/09/25 03:20:41;;;;;;;1190.97;917.10;;;11.70;99.90;;;;;;4875377;29;20097;-82
2023/09/25 03:23:07;;;;;;;1028.25;858.58;;;11.70;99.90;;;;;;4890427;29;20096;-82
2023/09/25 03:25:37;;;;;;;1111.18;908.58;;;11.60;99.90;;;;;;4890991;29;20423;-82
2023/09/25 03:28:03;;;;;;;1063.80;900.33;;;11.60;99.90;;;;;;4891457;29;20100;-82
2023/09/25 03:30:29;;;;;;;1163.45;919.95;;;11.60;99.90;;;;;;4891506;29;20124;-82
2023/09/25 03:32:55;;;;;;;1095.10;898.17;;;11.60;99.90;;;;;;4890000;29;20049;-83
2023/09/25 03:35:21;;;;;;;1003.42;861.80;;;11.60;99.90;;;;;;4891320;29;20052;-83
2023/09/25 03:37:47;;;;;;;964.92;843.70;;;11.60;99.90;;;;;;4874142;29;20045;-82
2023/09/25 03:40:13;;;;;;;1005.78;851.38;;;11.60;99.90;;;;;;4890363;29;20052;-82
2023/09/25 03:42:40;;;;;;;1190.00;919.00;;;11.60;99.90;;;;;;4889821;29;20055;-82
2023/09/25 03:45:06;;;;;;;1137.88;911.67;;;11.60;99.90;;;;;;4870491;29;20052;-82
2023/09/25 03:47:33;;;;;;;959.17;843.95;;;11.60;99.90;;;;;;4890464;29;20049;-82
2023/09/25 03:49:58;;;;;;;1016.22;854.63;;;11.60;99.90;;;;;;4889754;29;20134;-83
2023/09/25 03:52:24;;;;;;;1022.85;869.25;;;11.60;99.90;;;;;;4874725;29;20523;-82
2023/09/25 03:54:50;;;;;;;1094.30;897.22;;;11.60;99.90;;;;;;4874506;29;20052;-82
2023/09/25 03:57:15;;;;;;;953.22;847.80;;;11.60;99.90;;;;;;4889201;29;20037;-82
2023/09/25 03:59:41;;;;;;;1035.03;872.60;;;11.60;99.90;;;;;;4889398;29;20135;-82
2023/09/25 04:02:07;;;;;;;1001.78;862.40;;;11.60;99.90;;;;;;4891582;29;20096;-82
2023/09/25 04:04:33;;;;;;;1179.45;927.10;;;11.60;99.90;;;;;;4870406;29;20045;-82
2023/09/25 04:06:58;;;;;;;1182.32;926.58;;;11.60;99.90;;;;;;4888008;29;20045;-82
2023/09/25 04:09:24;;;;;;;1154.65;911.25;;;11.60;99.90;;;;;;4891449;29;20048;-82
2023/09/25 04:11:50;;;;;;;1147.20;906.60;;;11.60;99.90;;;;;;4889209;29;20131;-82
2023/09/25 04:14:16;;;;;;;1015.00;863.85;;;11.60;99.90;;;;;;4866539;29;20044;-82
2023/09/25 04:16:41;;;;;;;1172.03;918.55;;;11.60;99.90;;;;;;4884477;29;20052;-82
2023/09/25 04:19:07;;;;;;;1175.40;921.05;;;11.60;99.90;;;;;;4890127;29;20491;-82
2023/09/25 04:21:32;;;;;;;1115.75;904.78;;;11.60;99.90;;;;;;4889537;29;20434;-82
2023/09/25 04:24:01;;;;;;;1101.18;899.35;;;11.50;99.90;;;;;;4872504;29;20418;-82
2023/09/25 04:26:27;;;;;;;1100.30;896.80;;;11.60;99.90;;;;;;4891611;29;20045;-82
2023/09/25 04:28:53;;;;;;;1112.38;909.83;;;11.60;99.90;;;;;;4870573;29;20056;-82
2023/09/25 04:31:18;;;;;;;1034.57;861.78;;;11.60;99.90;;;;;;4879145;29;20064;-82
2023/09/25 04:33:44;;;;;;;1168.57;916.97;;;11.50;99.90;;;;;;4875249;29;20131;-82
2023/09/25 04:36:10;;;;;;;1014.92;870.15;;;11.60;99.90;;;;;;4878500;29;20047;-82
2023/09/25 04:38:36;;;;;;;1164.50;916.78;;;11.50;99.90;;;;;;4892847;29;20123;-82
2023/09/25 04:41:02;;;;;;;1162.20;913.67;;;11.50;99.90;;;;;;4875094;29;20390;-83
2023/09/25 04:43:28;;;;;;;1087.38;884.17;;;11.50;99.90;;;;;;4876878;29;20423;-82
2023/09/25 04:45:55;;;;;;;1148.18;918.58;;;11.50;99.90;;;;;;4886763;29;20115;-82
2023/09/25 04:48:21;;;;;;;1129.13;913.45;;;11.50;99.90;;;;;;4893088;29;20368;-82
2023/09/25 04:50:50;;;;;;;1097.60;907.55;;;11.50;99.90;;;;;;4890861;29;20066;-82
2023/09/25 04:53:16;;;;;;;994.65;853.58;;;11.50;99.90;;;;;;4875479;29;20504;-82
2023/09/25 04:55:41;;;;;;;974.30;850.72;;;11.50;99.90;;;;;;4890947;29;20051;-82
2023/09/25 04:58:08;;;;;;;1028.22;867.20;;;11.50;99.90;;;;;;4892700;29;20048;-82
2023/09/25 05:00:33;;;;;;;1044.68;880.97;;;11.50;99.90;;;;;;4891925;29;20143;-82
2023/09/25 05:03:00;;;;;;;1142.10;910.80;;;11.50;99.90;;;;;;4892853;29;20133;-82
2023/09/25 05:05:26;;;;;;;1024.35;865.38;;;11.50;99.90;;;;;;4893478;29;20060;-83
2023/09/25 05:07:54;;;;;;;1218.85;932.80;;;11.50;99.90;;;;;;4892178;29;20059;-82
2023/09/25 05:10:25;;;;;;;1229.05;926.70;;;11.50;99.90;;;;;;4893712;29;20036;-82
2023/09/25 05:12:52;;;;;;;1247.65;939.88;;;11.50;99.90;;;;;;4892903;29;20447;-82
2023/09/25 05:15:19;;;;;;;1014.75;875.72;;;11.50;99.90;;;;;;4892015;29;20048;-82
2023/09/25 05:17:46;;;;;;;1125.15;903.65;;;11.50;99.90;;;;;;4877495;29;20049;-82
2023/09/25 05:20:18;;;;;;;1134.53;895.17;;;11.50;99.90;;;;;;4892930;29;20053;-83
2023/09/25 05:22:52;;;;;;;1262.75;951.72;;;11.50;99.90;;;;;;4888212;29;20147;-83
2023/09/25 05:25:19;;;;;;;1081.78;889.22;;;11.50;99.90;;;;;;4878000;29;20053;-82
2023/09/25 05:27:47;;;;;;;992.55;855.72;;;11.50;99.90;;;;;;4872968;29;20045;-83
2023/09/25 05:30:13;;;;;;;1287.97;956.38;;;11.50;99.90;;;;;;4879738;29;20055;-82
2023/09/25 05:32:44;;;;;;;1284.18;948.03;;;11.50;99.90;;;;;;4884065;29;20552;-82
2023/09/25 05:35:10;;;;;;;1036.43;880.80;;;11.50;99.90;;;;;;4877086;29;20127;-82
2023/09/25 05:37:37;;;;;;;1168.10;924.95;;;11.50;99.90;;;;;;4884049;29;20502;-82
2023/09/25 05:40:05;;;;;;;1127.80;900.65;;;11.60;99.90;;;;;;4873010;29;20441;-82
2023/09/25 05:42:31;;;;;;;1178.10;926.08;;;11.50;99.90;;;;;;4898257;29;20473;-82
2023/09/25 05:44:57;;;;;;;1049.78;889.90;;;11.60;99.90;;;;;;4870520;29;20294;-82
2023/09/25 05:47:23;;;;;;;1222.97;948.50;;;11.60;99.90;;;;;;4898367;29;20108;-82
2023/09/25 05:49:49;;;;;;;1194.72;936.60;;;11.60;99.90;;;;;;4888756;29;20056;-82
2023/09/25 05:52:15;;;;;;;1269.65;956.00;;;11.60;99.90;;;;;;4889097;29;20130;-82
2023/09/25 05:54:40;;;;;;;1116.53;907.90;;;11.60;99.90;;;;;;4860456;29;20045;-82
2023/09/25 05:57:06;;;;;;;1132.28;912.95;;;11.70;99.90;;;;;;4876242;29;20057;-82
2023/09/25 05:59:35;;;;;;;1206.07;945.10;;;11.60;99.90;;;;;;4859001;29;20060;-82
2023/09/25 06:02:02;;;;;;;1184.68;927.60;;;11.70;99.90;;;;;;4875144;29;20506;-82
2023/09/25 06:04:28;;;;;;;1214.25;933.63;;;11.70;99.90;;;;;;4891760;29;20561;-82
2023/09/25 06:06:55;;;;;;;1198.32;931.28;;;11.70;99.90;;;;;;4878137;29;20049;-83
2023/09/25 06:09:21;;;;;;;1252.30;961.65;;;11.70;99.90;;;;;;4880806;29;20128;-82
2023/09/25 06:11:48;;;;;;;1163.13;931.05;;;11.70;99.90;;;;;;4885848;29;20433;-82
2023/09/25 06:14:16;;;;;;;1137.88;914.30;;;11.70;99.90;;;;;;4893092;29;20072;-82
2023/09/25 06:16:43;;;;;;;1146.00;913.67;;;11.80;99.90;;;;;;4889077;29;20486;-82
2023/09/25 06:19:08;;;;;;;1083.53;913.63;;;11.80;99.90;;;;;;4890230;29;20056;-80
2023/09/25 06:21:34;;;;;;;1177.60;929.47;;;11.90;99.90;;;;;;4875738;29;20049;-80
2023/09/25 06:24:01;;;;;;;1114.30;908.92;;;11.90;99.90;;;;;;4892455;29;20701;-80
2023/09/25 06:26:27;;;;;;;1110.80;904.92;;;12.00;99.90;;;;;;4889216;29;20049;-80
2023/09/25 06:28:54;;;;;;;1109.85;914.40;;;12.10;99.90;;;;;;4890463;29;20511;-80
2023/09/25 06:31:21;;;;;;;1114.07;908.60;;;12.10;99.90;;;;;;4887958;29;20044;-80
2023/09/25 06:33:47;;;;;;;1045.20;891.58;;;12.20;99.90;;;;;;4888453;29;20071;-80
2023/09/25 06:36:13;;;;;;;1070.63;899.40;;;12.20;99.90;;;;;;4896385;29;20508;-82
2023/09/25 06:38:39;;;;;;;1154.40;917.50;;;12.30;99.90;;;;;;4862867;29;20140;-82
2023/09/25 06:41:05;;;;;;;1080.22;897.70;;;12.30;99.90;;;;;;4872057;29;20127;-82
2023/09/25 06:43:31;;;;;;;1036.88;875.17;;;12.40;99.90;;;;;;4891362;29;20048;-82
2023/09/25 06:45:57;;;;;;;1028.22;883.22;;;12.40;99.90;;;;;;4887157;29;20048;-82
2023/09/25 06:48:22;;;;;;;1047.60;879.60;;;12.50;99.90;;;;;;4891281;29;20052;-82
2023/09/25 06:50:48;;;;;;;999.95;864.63;;;12.50;99.90;;;;;;4875949;29;20047;-82
2023/09/25 06:53:17;;;;;;;1001.47;860.33;;;12.50;99.90;;;;;;4891734;29;20470;-82
2023/09/25 06:55:44;;;;;;;976.55;855.40;;;12.60;99.90;;;;;;4875289;29;20056;-82
2023/09/25 06:58:10;;;;;;;981.33;868.08;;;12.60;99.90;;;;;;4892161;29;20044;-82
2023/09/25 07:00:36;;;;;;;943.78;834.67;;;12.60;99.90;;;;;;4871157;29;20623;-82
2023/09/25 07:03:02;;;;;;;983.80;858.25;;;12.70;99.90;;;;;;4887677;29;20099;-81
2023/09/25 07:05:28;;;;;;;961.65;854.78;;;12.70;99.90;;;;;;4904497;29;20060;-82
2023/09/25 07:07:56;;;;;;;965.53;853.95;;;12.80;99.90;;;;;;4889843;29;20549;-82
2023/09/25 07:10:22;;;;;;;943.03;840.17;;;12.70;99.90;;;;;;4889932;29;20096;-82
2023/09/25 07:12:47;;;;;;;916.03;820.35;;;12.80;99.90;;;;;;4875280;29;20497;-81
2023/09/25 07:15:13;;;;;;;902.08;809.90;;;12.80;99.90;;;;;;4889754;29;20051;-82
2023/09/25 07:17:39;;;;;;;917.88;821.55;;;12.90;99.90;;;;;;4888829;29;20164;-82
2023/09/25 07:20:05;;;;;;;910.58;814.13;;;12.90;99.90;;;;;;4889425;29;20051;-82
2023/09/25 07:22:31;;;;;;;895.58;802.70;;;12.90;99.90;;;;;;4888641;29;20069;-82
2023/09/25 07:24:57;;;;;;;843.42;761.00;;;13.00;99.90;;;;;;4888377;29;20444;-82
2023/09/25 07:27:23;;;;;;;888.08;795.55;;;13.00;99.90;;;;;;4887461;29;20063;-83
2023/09/25 07:29:48;;;;;;;838.78;756.72;;;13.00;99.90;;;;;;4871576;29;20079;-82
2023/09/25 07:32:15;;;;;;;809.38;730.22;;;13.10;99.90;;;;;;4889325;29;20080;-82
2023/09/25 07:34:45;;;;;;;865.05;779.00;;;13.10;99.90;;;;;;4868593;29;20447;-82
2023/09/25 07:37:12;;;;;;;861.58;774.78;;;13.20;99.90;;;;;;4883624;29;20037;-83
2023/09/25 07:39:39;;;;;;;813.17;733.45;;;13.30;99.90;;;;;;4901970;29;20143;-83
2023/09/25 07:42:08;;;;;;;814.53;735.03;;;13.30;99.90;;;;;;4878330;29;20099;-81
2023/09/25 07:44:34;;;;;;;818.13;738.00;;;13.40;99.90;;;;;;4897478;29;20049;-81
2023/09/25 07:47:07;;;;;;;845.38;761.08;;;13.40;99.90;;;;;;4882963;29;20428;-81
2023/09/25 07:49:40;;;;;;;922.72;824.20;;;13.50;99.90;;;;;;4889017;29;20052;-82
2023/09/25 07:52:15;;;;;;;835.40;751.75;;;13.60;99.90;;;;;;4881551;29;20059;-82
2023/09/25 07:54:45;;;;;;;831.53;747.17;;;13.70;99.90;;;;;;4874550;29;20427;-82
2023/09/25 07:57:21;;;;;;;825.22;742.95;;;13.80;99.90;;;;;;4874174;29;20509;-82
2023/09/25 07:59:47;;;;;;;841.65;756.55;;;13.90;99.90;;;;;;4865330;29;20390;-81
2023/09/25 08:02:17;;;;;;;803.03;723.88;;;14.00;99.90;;;;;;4889726;29;20060;-81
2023/09/25 08:04:44;;;;;;;787.58;710.70;;;14.10;99.90;;;;;;4905026;29;20059;-82
2023/09/25 08:07:11;;;;;;;804.75;724.35;;;14.20;99.90;;;;;;4889252;29;20553;-82
2023/09/25 08:09:37;;;;;;;784.10;705.67;;;14.30;99.90;;;;;;4862720;29;20053;-82
2023/09/25 08:12:03;;;;;;;752.75;679.85;;;14.40;99.90;;;;;;4862191;29;20089;-82
2023/09/25 08:14:29;;;;;;;760.85;686.63;;;14.40;99.90;;;;;;4882118;29;20198;-82
2023/09/25 08:16:54;;;;;;;797.00;717.00;;;14.40;99.90;;;;;;4873227;29;20548;-82
2023/09/25 08:19:22;;;;;;;659.88;598.40;;;14.50;99.90;;;;;;4890134;29;20587;-81
2023/09/25 08:21:53;;;;;;;639.15;579.22;;;14.50;99.90;;;;;;4890296;29;20104;-82
2023/09/25 08:24:20;;;;;;;754.05;677.33;;;14.60;99.90;;;;;;4889180;29;20060;-81
2023/09/25 08:26:48;;;;;;;743.08;671.65;;;14.60;99.90;;;;;;4872047;29;20057;-81
2023/09/25 08:29:16;;;;;;;629.70;572.78;;;14.70;99.90;;;;;;4883775;29;20055;-82
2023/09/25 08:31:43;;;;;;;659.72;599.88;;;14.80;99.90;;;;;;4872666;29;20053;-82
2023/09/25 08:34:10;;;;;;;643.78;586.95;;;14.90;99.90;;;;;;4889839;29;20131;-81
2023/09/25 08:36:36;;;;;;;631.00;574.75;;;14.90;99.90;;;;;;4889884;29;20093;-82
2023/09/25 08:39:01;;;;;;;596.55;543.78;;;15.00;99.90;;;;;;4873589;29;20080;-82
2023/09/25 08:41:29;;;;;;;597.78;544.00;;;15.10;99.90;;;;;;4889694;29;20172;-82
2023/09/25 08:43:55;;;;;;;655.58;596.33;;;15.10;99.90;;;;;;4889442;29;20048;-82
2023/09/25 08:46:23;;;;;;;591.50;539.30;;;15.20;99.90;;;;;;4873082;29;20051;-82
2023/09/25 08:48:52;;;;;;;558.33;508.50;;;15.30;99.90;;;;;;4889887;29;20060;-82
2023/09/25 08:51:20;;;;;;;643.00;582.50;;;15.30;99.90;;;;;;4890083;29;20072;-82
2023/09/25 08:53:46;;;;;;;620.95;560.90;;;15.40;99.90;;;;;;4873357;29;20179;-82
2023/09/25 08:56:15;;;;;;;602.03;545.40;;;15.50;99.90;;;;;;4889956;29;20048;-82
2023/09/25 08:58:45;;;;;;;513.97;470.88;;;15.60;99.90;;;;;;4877315;29;20053;-82
2023/09/25 09:01:12;;;;;;;593.92;538.75;;;15.70;99.90;;;;;;4863100;29;20040;-82
2023/09/25 09:03:39;;;;;;;598.95;542.45;;;15.80;99.90;;;;;;4890170;29;20049;-83
2023/09/25 09:06:05;;;;;;;538.92;489.73;;;15.90;99.90;;;;;;4891364;29;20068;-82
2023/09/25 09:08:31;;;;;;;616.67;559.05;;;16.00;99.90;;;;;;4871137;29;20131;-82
2023/09/25 09:10:56;;;;;;;561.20;510.45;;;16.10;99.90;;;;;;4861621;29;20052;-82
2023/09/25 09:13:23;;;;;;;655.25;592.92;;;16.10;99.90;;;;;;4885401;29;20049;-82
2023/09/25 09:15:52;;;;;;;511.77;466.40;;;16.20;99.90;;;;;;4873460;29;20091;-82
2023/09/25 09:18:23;;;;;;;489.42;446.90;;;16.30;99.90;;;;;;4874184;29;20544;-82
2023/09/25 09:20:49;;;;;;;588.83;534.40;;;16.40;99.90;;;;;;4876914;29;20056;-82
2023/09/25 09:23:18;;;;;;;546.65;497.38;;;16.40;99.90;;;;;;4893220;29;20055;-82
2023/09/25 09:25:52;;;;;;;640.28;579.63;;;16.50;99.90;;;;;;4877861;29;20036;-82
2023/09/25 09:28:21;;;;;;;712.58;639.30;;;16.60;99.90;;;;;;4892845;29;20060;-81
2023/09/25 09:30:47;;;;;;;597.53;539.10;;;16.60;99.90;;;;;;4894130;29;20124;-82
2023/09/25 09:33:13;;;;;;;574.95;523.38;;;16.70;99.90;;;;;;4893900;29;20115;-82
2023/09/25 09:35:38;;;;;;;609.25;549.22;;;16.80;99.90;;;;;;4890194;29;20080;-82
2023/09/25 09:38:05;;;;;;;726.63;650.47;;;16.80;99.90;;;;;;4890635;29;20095;-81
2023/09/25 09:40:31;;;;;;;654.15;590.80;;;16.80;99.90;;;;;;4891183;29;20084;-82
2023/09/25 09:42:58;;;;;;;636.17;576.05;;;16.90;99.90;;;;;;4874291;29;20142;-82
2023/09/25 09:45:26;;;;;;;685.30;615.38;;;17.00;99.90;;;;;;4872117;29;20544;-82
2023/09/25 09:47:54;;;;;;;653.05;589.50;;;17.00;99.90;;;;;;4891247;29;20052;-82
2023/09/25 09:50:27;;;;;;;639.67;580.67;;;17.10;99.90;;;;;;4891866;29;20045;-82
2023/09/25 09:52:53;;;;;;;;;;;17.10;99.90;;;;;;4877132;29;20063;-82
2023/09/25 09:55:21;;;;;;;625.85;566.28;;;17.20;99.90;;;;;;4892820;29;20353;-82
2023/09/25 09:57:49;;;;;;;669.83;602.53;;;17.20;99.90;;;;;;4892334;29;20076;-82
2023/09/25 10:00:15;;;;;;;636.35;575.03;;;17.30;99.90;;;;;;4893559;29;20044;-82
2023/09/25 10:02:42;;;;;;;663.80;601.05;;;17.30;99.90;;;;;;4891468;29;20489;-82
2023/09/25 10:05:11;;;;;;;635.17;571.30;;;17.40;99.90;;;;;;4891847;29;20143;-82
2023/09/25 10:08:05;;;;;;;610.92;552.85;;;17.50;99.90;;;;;;4892809;29;20056;-82
2023/09/25 10:10:36;;;;;;;625.47;566.10;;;17.50;99.90;;;;;;4886378;29;20143;-82
2023/09/25 10:13:01;;;;;;;651.83;590.72;;;17.80;99.90;;;;;;4870513;29;20463;-82
2023/09/25 10:15:27;;;;;;;642.17;582.97;;;17.60;99.90;;;;;;4891061;29;20057;-82
2023/09/25 10:17:54;;;;;;;618.53;561.33;;;17.60;99.90;;;;;;4891247;29;20041;-82
2023/09/25 10:20:32;;;;;;;597.92;541.53;;;17.60;99.90;;;;;;4876302;29;20048;-82
2023/09/25 10:23:08;;;;;;;654.45;591.92;;;17.70;99.90;;;;;;4891844;29;20521;-82
2023/09/25 10:26:02;;;;;;;679.92;617.33;;;17.70;99.90;;;;;;4891415;29;20067;-83
2023/09/25 10:28:37;;;;;;;645.90;581.90;;;17.90;99.90;;;;;;4873839;29;20144;-82
2023/09/25 10:31:18;;;;;;;645.72;586.92;;;17.90;99.90;;;;;;4874196;29;20044;-82
2023/09/25 10:33:54;;;;;;;635.38;574.95;;;18.00;99.90;;;;;;4876490;29;20409;-86
2023/09/25 10:36:19;;;;;;;691.22;625.15;;;18.00;99.90;;;;;;4876913;29;20109;-85
2023/09/25 10:38:53;;;;;;;636.35;576.53;;;18.10;99.90;;;;;;4890998;29;20564;-85
2023/09/25 10:41:21;;;;;;;619.38;562.65;;;18.10;99.90;;;;;;4876184;29;20065;-85
2023/09/25 10:43:47;;;;;;;614.95;559.22;;;18.20;99.90;;;;;;4891331;29;20115;-85
2023/09/25 10:46:14;;;;;;;580.30;528.13;;;18.20;99.90;;;;;;4874838;29;20180;-85
2023/09/25 10:48:39;;;;;;;549.42;501.20;;;18.30;99.90;;;;;;4891902;29;20052;-85
2023/09/25 10:51:06;;;;;;;579.80;528.50;;;18.20;99.90;;;;;;4891481;29;20048;-85
2023/09/25 10:53:33;;;;;;;567.65;517.47;;;18.20;99.90;;;;;;4875399;29;20052;-86
2023/09/25 10:55:59;;;;;;;554.55;505.70;;;18.30;99.90;;;;;;4874873;29;20474;-84
2023/09/25 10:58:26;;;;;;;598.47;545.85;;;18.40;99.90;;;;;;4891337;29;20087;-84
2023/09/25 11:00:52;;;;;;;552.28;504.20;;;18.40;99.90;;;;;;4870152;29;20049;-84
2023/09/25 11:03:18;;;;;;;572.40;522.58;;;18.40;99.90;;;;;;4869691;29;20060;-84
2023/09/25 11:05:44;;;;;;;587.25;534.95;;;18.40;99.90;;;;;;4874285;29;20053;-84
2023/09/25 11:08:12;;;;;;;590.33;539.08;;;18.40;99.90;;;;;;4864220;29;20136;-85
2023/09/25 11:10:38;;;;;;;651.88;593.58;;;18.50;99.90;;;;;;4869291;29;20053;-84
2023/09/25 11:13:04;;;;;;;597.70;545.35;;;18.50;99.90;;;;;;4893340;29;20064;-85
2023/09/25 11:15:35;;;;;;;624.40;569.60;;;18.60;99.90;;;;;;4875327;29;20405;-84
2023/09/25 11:18:01;;;;;;;586.72;536.65;;;18.70;99.90;;;;;;4875131;29;20079;-84
2023/09/25 11:20:29;;;;;;;651.80;592.65;;;18.80;99.90;;;;;;4874635;29;20072;-84
2023/09/25 11:23:09;;;;;;;664.92;604.70;;;18.90;99.90;;;;;;4873085;29;20427;-83
2023/09/25 11:25:46;;;;;;;604.60;552.35;;;19.00;99.90;;;;;;4890137;29;20056;-83
2023/09/25 11:28:13;;;;;;;598.53;546.25;;;19.10;99.90;;;;;;4871721;29;20040;-83
2023/09/25 11:30:40;;;;;;;594.58;543.20;;;19.10;99.90;;;;;;4887989;29;20056;-83
2023/09/25 11:33:09;;;;;;;650.45;591.60;;;19.20;99.90;;;;;;4873481;29;20041;-83
2023/09/25 11:35:42;;;;;;;487.90;445.88;;;19.30;99.90;;;;;;4873927;29;20052;-84
2023/09/25 11:38:18;;;;;;;620.28;565.85;;;19.30;99.90;;;;;;4875835;29;20111;-83
2023/09/25 11:40:45;;;;;;;631.10;575.78;;;19.30;99.90;;;;;;4868912;29;20096;-83
2023/09/25 11:43:12;;;;;;;605.58;553.17;;;19.40;99.90;;;;;;4878154;29;20056;-85
2023/09/25 11:45:39;;;;;;;544.20;494.80;;;19.50;99.90;;;;;;4873722;29;20466;-83
2023/09/25 11:48:05;;;;;;;538.63;492.02;;;19.60;99.90;;;;;;4890684;29;20369;-81
2023/09/25 11:50:31;;;;;;;511.75;465.38;;;19.70;99.90;;;;;;4890252;29;20055;-83
2023/09/25 11:52:57;;;;;;;466.02;422.38;;;19.70;99.90;;;;;;4890643;29;20404;-83
2023/09/25 11:55:24;;;;;;;469.88;428.85;;;19.80;99.90;;;;;;4874074;29;20524;-83
2023/09/25 11:57:49;;;;;;;512.15;466.95;;;19.70;99.90;;;;;;4875060;29;20056;-82
2023/09/25 12:00:16;;;;;;;526.47;479.63;;;19.70;99.90;;;;;;4865669;29;20379;-83
2023/09/25 12:02:46;;;;;;;524.50;475.52;;;19.70;99.90;;;;;;4884885;29;20056;-83
2023/09/25 12:05:12;;;;;;;583.72;532.55;;;19.70;99.90;;;;;;4875097;29;20047;-83